createdAt,value
2022-09-06T00:10:22.368Z,1020.30
2022-09-06T00:25:22.954Z,1020.20
2022-09-06T00:40:24.837Z,1020.20
2022-09-06T00:55:25.416Z,1020.25
2022-09-06T01:10:26.508Z,1020.13
2022-09-06T01:25:27.421Z,1019.94
2022-09-06T01:40:27.534Z,1019.89
2022-09-06T01:55:28.688Z,1020.03
2022-09-06T02:10:30.531Z,1020.03
2022-09-06T02:25:31.945Z,1020.03
2022-09-06T02:40:33.999Z,1019.83
2022-09-06T02:55:34.281Z,1019.93
2022-09-06T03:10:36.979Z,1019.81
2022-09-06T03:25:37.573Z,1019.66
2022-09-06T03:40:39.233Z,1019.64
2022-09-06T03:55:40.207Z,1019.69
2022-09-06T04:10:40.952Z,1019.73
2022-09-06T04:25:42.289Z,1019.61
2022-09-06T04:40:43.461Z,1019.56
2022-09-06T04:55:44.593Z,1019.43
2022-09-06T05:10:46.760Z,1019.34
2022-09-06T05:25:48.111Z,1019.15
2022-09-06T05:40:48.408Z,1019.19
2022-09-06T05:55:48.504Z,1019.20
2022-09-06T06:10:49.876Z,1019.28
2022-09-06T06:25:50.953Z,1019.14
2022-09-06T06:40:54.124Z,1019.02
2022-09-06T06:55:57.193Z,1019.08
2022-09-06T07:10:58.564Z,1019.07
2022-09-06T07:25:58.963Z,1019.07
2022-09-06T07:41:00.515Z,1019.03
2022-09-06T07:56:01.883Z,1019.03
2022-09-06T08:11:03.248Z,1018.97
2022-09-06T08:26:03.358Z,1018.94
2022-09-06T08:41:04.233Z,1018.87
2022-09-06T08:56:04.975Z,1018.75
2022-09-06T09:11:05.417Z,1018.65
2022-09-06T09:26:06.447Z,1018.68
2022-09-06T09:41:06.006Z,1018.48
2022-09-06T09:56:06.581Z,1018.26
2022-09-06T10:11:06.690Z,1018.11
2022-09-06T10:26:07.750Z,1018.18
2022-09-06T10:41:07.832Z,1018.02
2022-09-06T10:56:08.429Z,1017.91
2022-09-06T11:11:09.043Z,1017.84
2022-09-06T11:26:09.612Z,1017.76
2022-09-06T11:41:12.087Z,1017.61
2022-09-06T11:56:12.837Z,1017.49
2022-09-06T12:11:12.916Z,1017.38
2022-09-06T12:26:12.978Z,1017.32
2022-09-06T12:41:13.067Z,1017.12
2022-09-06T12:56:13.675Z,1017.10
2022-09-06T13:11:13.801Z,1016.93
2022-09-06T13:26:13.895Z,1016.82
2022-09-06T13:41:16.430Z,1016.58
2022-09-06T13:56:20.553Z,1016.56
2022-09-06T14:11:20.881Z,1016.59
2022-09-06T14:26:21.325Z,1016.39
2022-09-06T14:41:22.658Z,1016.24
2022-09-06T14:56:23.225Z,1016.36
2022-09-06T15:11:23.123Z,1016.36
2022-09-06T15:26:23.718Z,1016.21
2022-09-06T15:41:25.571Z,1016.19
2022-09-06T15:56:27.436Z,1016.07
2022-09-06T16:11:27.528Z,1015.89
2022-09-06T16:26:27.631Z,1015.85
2022-09-06T16:41:28.235Z,1015.75
2022-09-06T16:56:29.295Z,1015.63
2022-09-06T17:11:28.965Z,1015.66
2022-09-06T17:26:29.052Z,1015.58
2022-09-06T17:41:29.142Z,1015.71
2022-09-06T17:56:29.235Z,1015.84
2022-09-06T18:11:29.344Z,1015.83
2022-09-06T18:26:29.444Z,1015.92
2022-09-06T18:41:29.519Z,1015.91
2022-09-06T18:56:29.642Z,1015.93
2022-09-06T19:11:29.729Z,1015.90
2022-09-06T19:26:31.892Z,1015.95
2022-09-06T19:41:34.497Z,1015.74
2022-09-06T19:56:34.594Z,1015.49
2022-09-06T20:11:35.931Z,1015.51
2022-09-06T20:26:36.640Z,1015.57
2022-09-06T20:41:38.962Z,1015.43
2022-09-06T20:56:40.809Z,1015.28
2022-09-06T21:11:41.427Z,1015.11
2022-09-06T21:26:42.375Z,1015.07
2022-09-06T21:41:44.719Z,1014.94
2022-09-06T21:56:45.398Z,1014.87
2022-09-06T22:11:48.499Z,1014.72
2022-09-06T22:26:49.692Z,1014.71
2022-09-06T22:41:51.492Z,1014.57
2022-09-06T22:56:53.378Z,1014.45
2022-09-06T23:11:54.762Z,1014.38
2022-09-06T23:26:56.131Z,1014.41
2022-09-06T23:41:57.666Z,1014.26
2022-09-06T23:56:58.291Z,1014.31
